createdAt,value
2023-03-20T00:01:01.958Z,2.60
2023-03-20T00:03:30.133Z,3.25
2023-03-20T00:05:59.624Z,2.85
2023-03-20T00:08:29.746Z,2.83
2023-03-20T00:10:57.996Z,2.70
2023-03-20T00:13:28.337Z,2.72
2023-03-20T00:15:56.555Z,3.00
2023-03-20T00:18:26.657Z,3.22
2023-03-20T00:20:54.858Z,2.95
2023-03-20T00:23:24.396Z,2.90
2023-03-20T00:25:53.664Z,2.83
2023-03-20T00:28:39.030Z,2.70
2023-03-20T00:31:14.853Z,2.85
2023-03-20T00:33:43.123Z,2.60
2023-03-20T00:36:11.680Z,2.63
2023-03-20T00:38:41.331Z,2.83
2023-03-20T00:41:22.776Z,3.08
2023-03-20T00:43:54.633Z,2.60
2023-03-20T00:46:23.187Z,2.92
2023-03-20T00:48:51.908Z,2.75
2023-03-20T00:51:20.575Z,2.95
2023-03-20T00:53:50.097Z,2.88
2023-03-20T00:56:32.798Z,2.20
2023-03-20T00:59:02.609Z,2.70
2023-03-20T01:01:32.012Z,2.55
2023-03-20T01:04:00.912Z,2.78
2023-03-20T01:06:31.445Z,2.65
2023-03-20T01:09:01.111Z,2.97
2023-03-20T01:11:29.284Z,2.53
2023-03-20T01:13:57.561Z,2.70
2023-03-20T01:16:27.787Z,2.60
2023-03-20T01:18:56.799Z,2.73
2023-03-20T01:21:25.011Z,2.60
2023-03-20T01:23:53.175Z,3.03
2023-03-20T01:26:33.432Z,2.70
2023-03-20T01:29:01.667Z,2.70
2023-03-20T01:31:29.888Z,2.63
2023-03-20T01:33:58.302Z,2.28
2023-03-20T01:36:26.538Z,2.70
2023-03-20T01:38:57.430Z,2.63
2023-03-20T01:41:27.773Z,2.85
2023-03-20T01:43:56.014Z,2.60
2023-03-20T01:46:28.495Z,2.65
2023-03-20T01:49:06.811Z,2.63
2023-03-20T01:51:36.258Z,2.70
2023-03-20T01:54:08.414Z,2.72
2023-03-20T01:56:42.323Z,2.25
2023-03-20T01:59:14.542Z,2.85
2023-03-20T02:01:44.017Z,2.67
2023-03-20T02:04:13.724Z,2.38
2023-03-20T02:06:45.007Z,2.92
2023-03-20T02:09:13.583Z,2.60
2023-03-20T02:11:44.574Z,2.50
2023-03-20T02:16:41.865Z,2.42
2023-03-20T02:19:19.637Z,2.47
2023-03-20T02:22:21.357Z,2.60
2023-03-20T02:25:27.276Z,2.40
2023-03-20T02:28:20.098Z,2.60
2023-03-20T02:31:06.798Z,2.50
2023-03-20T02:33:57.019Z,2.70
2023-03-20T02:36:49.652Z,2.60
2023-03-20T02:39:46.640Z,2.47
2023-03-20T02:42:21.819Z,2.65
2023-03-20T02:44:58.944Z,2.50
2023-03-20T02:47:31.674Z,2.20
2023-03-20T02:50:07.720Z,2.35
2023-03-20T02:52:44.360Z,2.08
2023-03-20T02:55:21.444Z,2.72
2023-03-20T02:57:58.941Z,2.40
2023-03-20T03:00:33.579Z,2.65
2023-03-20T03:03:07.917Z,2.40
2023-03-20T03:05:40.504Z,2.65
2023-03-20T03:08:13.744Z,2.53
2023-03-20T03:10:46.713Z,2.53
2023-03-20T03:13:18.227Z,2.53
2023-03-20T03:15:49.703Z,2.33
2023-03-20T03:18:21.757Z,2.45
2023-03-20T03:20:54.024Z,2.40
2023-03-20T03:23:27.657Z,2.40
2023-03-20T03:25:59.100Z,2.33
2023-03-20T03:28:37.045Z,2.60
2023-03-20T03:31:08.349Z,2.60
2023-03-20T03:33:40.772Z,2.42
2023-03-20T03:36:18.955Z,2.53
2023-03-20T03:38:56.879Z,2.55
2023-03-20T03:41:31.942Z,2.50
2023-03-20T03:44:08.036Z,2.63
2023-03-20T03:46:44.782Z,2.40
2023-03-20T03:49:17.643Z,2.47
2023-03-20T03:51:50.752Z,2.40
2023-03-20T03:54:22.181Z,2.67
2023-03-20T03:56:54.832Z,2.70
2023-03-20T03:59:27.561Z,2.55
2023-03-20T04:01:57.276Z,2.60
2023-03-20T04:04:27.375Z,2.20
2023-03-20T04:06:55.756Z,2.45
2023-03-20T04:09:24.166Z,2.50
2023-03-20T04:11:54.737Z,2.40
2023-03-20T04:14:23.138Z,2.65
2023-03-20T04:16:51.305Z,2.22
2023-03-20T04:19:19.536Z,2.60
2023-03-20T04:21:47.688Z,2.63
2023-03-20T04:24:16.138Z,2.40
2023-03-20T04:26:44.454Z,2.30
2023-03-20T04:29:14.199Z,2.53
2023-03-20T04:31:42.433Z,2.33
2023-03-20T04:34:10.796Z,2.58
2023-03-20T04:36:38.976Z,2.60
2023-03-20T04:39:07.236Z,2.47
2023-03-20T04:41:35.461Z,2.42
2023-03-20T04:44:03.654Z,2.45
2023-03-20T04:46:33.235Z,2.38
2023-03-20T04:49:01.385Z,2.65
2023-03-20T04:51:29.652Z,2.35
2023-03-20T04:53:57.880Z,2.22
2023-03-20T04:56:26.211Z,2.08
2023-03-20T04:58:54.376Z,2.50
2023-03-20T05:01:23.426Z,2.35
2023-03-20T05:03:53.134Z,2.45
2023-03-20T05:06:21.337Z,2.42
2023-03-20T05:08:49.529Z,2.40
2023-03-20T05:11:17.754Z,2.15
2023-03-20T05:13:46.055Z,2.63
2023-03-20T05:16:14.326Z,2.25
2023-03-20T05:18:42.584Z,2.30
2023-03-20T05:21:12.366Z,2.58
2023-03-20T05:23:40.692Z,2.53
2023-03-20T05:26:08.913Z,2.38
2023-03-20T05:28:37.124Z,2.40
2023-03-20T05:31:05.708Z,2.20
2023-03-20T05:33:36.807Z,2.53
2023-03-20T05:36:07.553Z,2.42
2023-03-20T05:38:37.306Z,2.50
2023-03-20T05:41:05.761Z,2.17
2023-03-20T05:43:34.000Z,2.67
2023-03-20T05:46:02.293Z,2.67
2023-03-20T05:48:30.685Z,2.35
2023-03-20T05:50:59.033Z,2.75
2023-03-20T05:53:27.244Z,2.40
2023-03-20T05:55:56.882Z,2.60
2023-03-20T05:58:25.170Z,2.45
2023-03-20T06:00:53.413Z,2.60
2023-03-20T06:03:21.764Z,2.42
2023-03-20T06:05:49.960Z,2.22
2023-03-20T06:08:18.133Z,2.60
2023-03-20T06:10:46.423Z,2.42
2023-03-20T06:13:16.325Z,2.40
2023-03-20T06:15:44.537Z,2.50
2023-03-20T06:18:12.806Z,2.45
2023-03-20T06:20:41.138Z,2.83
2023-03-20T06:23:09.251Z,2.33
2023-03-20T06:25:38.789Z,2.67
2023-03-20T06:28:07.053Z,2.22
2023-03-20T06:30:36.796Z,2.50
2023-03-20T06:33:05.143Z,2.75
2023-03-20T06:35:33.903Z,2.33
2023-03-20T06:38:02.407Z,2.60
2023-03-20T06:40:30.681Z,2.30
2023-03-20T06:42:58.944Z,2.65
2023-03-20T06:45:27.178Z,2.60
2023-03-20T06:47:56.744Z,3.13
2023-03-20T06:50:25.067Z,2.33
2023-03-20T06:52:53.566Z,2.50
2023-03-20T06:55:22.110Z,2.80
2023-03-20T06:57:50.280Z,2.83
2023-03-20T07:00:20.444Z,2.60
2023-03-20T07:02:49.864Z,2.67
2023-03-20T07:05:19.479Z,2.75
2023-03-20T07:07:47.710Z,2.50
2023-03-20T07:10:15.900Z,2.35
2023-03-20T07:12:44.767Z,2.40
2023-03-20T07:15:13.625Z,2.80
2023-03-20T07:17:42.226Z,2.63
2023-03-20T07:20:11.749Z,2.42
2023-03-20T07:22:42.664Z,2.47
2023-03-20T07:25:11.633Z,2.38
2023-03-20T07:27:39.851Z,2.45
2023-03-20T07:30:09.659Z,2.30
2023-03-20T07:32:38.175Z,2.60
2023-03-20T07:35:07.241Z,2.72
2023-03-20T07:37:35.386Z,2.50
2023-03-20T07:40:05.850Z,2.40
2023-03-20T07:42:34.482Z,2.33
2023-03-20T07:45:02.865Z,2.50
2023-03-20T07:47:31.272Z,2.63
2023-03-20T07:49:59.445Z,2.50
2023-03-20T07:52:27.603Z,2.75
2023-03-20T07:54:55.868Z,2.72
2023-03-20T07:57:25.516Z,3.20
2023-03-20T07:59:53.697Z,2.88
2023-03-20T08:02:21.874Z,2.60
2023-03-20T08:04:50.111Z,2.75
2023-03-20T08:07:18.321Z,3.28
2023-03-20T08:09:46.611Z,3.50
2023-03-20T08:12:15.135Z,3.00
2023-03-20T08:14:44.916Z,3.25
2023-03-20T08:17:16.080Z,3.15
2023-03-20T08:19:46.105Z,3.60
2023-03-20T08:22:14.685Z,3.13
2023-03-20T08:24:42.969Z,3.13
2023-03-20T08:27:11.400Z,3.53
2023-03-20T08:29:39.571Z,3.00
2023-03-20T08:32:09.308Z,3.40
2023-03-20T08:34:37.733Z,3.10
2023-03-20T08:37:07.920Z,3.33
2023-03-20T08:39:36.326Z,3.40
2023-03-20T08:42:04.541Z,3.35
2023-03-20T08:44:32.802Z,3.85
2023-03-20T08:47:01.022Z,3.45
2023-03-20T08:49:30.638Z,4.00
2023-03-20T08:51:58.880Z,3.53
2023-03-20T08:54:27.552Z,3.60
2023-03-20T08:56:55.805Z,3.92
2023-03-20T08:59:24.059Z,3.30
2023-03-20T09:01:52.281Z,3.55
2023-03-20T09:04:20.613Z,3.55
2023-03-20T09:06:51.765Z,3.85
2023-03-20T09:11:50.025Z,3.58
2023-03-20T09:14:18.445Z,3.88
2023-03-20T09:16:47.175Z,3.03
2023-03-20T09:19:15.386Z,3.88
2023-03-20T09:21:43.645Z,3.45
2023-03-20T09:24:13.200Z,3.22
2023-03-20T09:26:41.515Z,3.47
2023-03-20T09:29:09.782Z,3.67
2023-03-20T09:31:37.968Z,2.95
2023-03-20T09:34:06.365Z,3.70
2023-03-20T09:36:34.789Z,3.60
2023-03-20T09:39:03.072Z,3.40
2023-03-20T09:41:45.876Z,3.75
2023-03-20T09:44:39.065Z,2.97
2023-03-20T09:47:20.738Z,3.65
2023-03-20T09:50:03.485Z,4.03
2023-03-20T09:52:33.739Z,3.40
2023-03-20T09:55:08.033Z,3.20
2023-03-20T09:57:41.509Z,3.20
2023-03-20T10:00:16.616Z,3.58
2023-03-20T10:02:51.141Z,3.80
2023-03-20T10:05:24.324Z,3.13
2023-03-20T10:07:55.168Z,3.28
2023-03-20T10:10:32.440Z,3.40
2023-03-20T10:13:12.135Z,3.00
2023-03-20T10:15:48.088Z,3.35
2023-03-20T10:18:24.033Z,3.72
2023-03-20T10:20:59.142Z,3.30
2023-03-20T10:23:36.086Z,3.08
2023-03-20T10:26:09.847Z,3.00
2023-03-20T10:28:44.599Z,3.72
2023-03-20T10:31:27.123Z,3.25
2023-03-20T10:34:05.063Z,2.90
2023-03-20T10:36:50.815Z,3.10
2023-03-20T10:39:25.468Z,3.25
2023-03-20T10:41:57.320Z,3.72
2023-03-20T10:44:32.318Z,3.13
2023-03-20T10:47:03.309Z,3.75
2023-03-20T10:52:07.343Z,3.33
2023-03-20T10:54:38.492Z,3.30
2023-03-20T10:57:09.236Z,3.00
2023-03-20T10:59:41.821Z,3.00
2023-03-20T11:02:12.651Z,3.95
2023-03-20T11:04:41.432Z,2.90
2023-03-20T11:07:20.778Z,3.00
2023-03-20T11:10:10.502Z,2.63
2023-03-20T11:12:41.132Z,3.05
2023-03-20T11:15:22.759Z,3.35
2023-03-20T11:17:56.213Z,3.20
2023-03-20T11:20:25.896Z,3.40
2023-03-20T11:23:02.083Z,3.00
2023-03-20T11:25:33.508Z,2.60
2023-03-20T11:28:26.468Z,2.60
2023-03-20T11:31:04.946Z,3.00
2023-03-20T11:33:38.150Z,2.83
2023-03-20T11:36:13.420Z,2.80
2023-03-20T11:38:46.551Z,2.97
2023-03-20T11:41:25.754Z,3.08
2023-03-20T11:43:54.227Z,3.08
2023-03-20T11:46:25.626Z,3.10
2023-03-20T11:49:06.537Z,3.03
2023-03-20T11:51:36.891Z,2.70
2023-03-20T11:54:08.192Z,3.30
2023-03-20T11:56:37.623Z,2.75
2023-03-20T11:59:14.374Z,2.50
2023-03-20T12:01:47.289Z,2.95
2023-03-20T12:04:18.415Z,2.70
2023-03-20T12:09:34.436Z,2.75
2023-03-20T12:12:04.562Z,2.97
2023-03-20T12:14:41.698Z,2.53
2023-03-20T12:17:28.795Z,2.53
2023-03-20T12:20:03.349Z,2.92
2023-03-20T12:22:35.842Z,3.13
2023-03-20T12:25:13.120Z,2.60
2023-03-20T12:27:49.005Z,2.60
2023-03-20T12:30:24.710Z,3.15
2023-03-20T12:33:01.906Z,2.80
2023-03-20T12:35:32.181Z,2.45
2023-03-20T12:38:00.988Z,2.80
2023-03-20T12:40:40.488Z,2.65
2023-03-20T12:43:15.893Z,2.40
2023-03-20T12:45:54.342Z,2.67
2023-03-20T12:49:01.181Z,2.75
2023-03-20T12:51:41.115Z,2.38
2023-03-20T12:54:26.444Z,3.35
2023-03-20T12:57:07.915Z,2.85
2023-03-20T12:59:48.271Z,2.60
2023-03-20T13:02:33.826Z,2.90
2023-03-20T13:05:18.064Z,2.72
2023-03-20T13:08:02.850Z,2.38
2023-03-20T13:10:36.397Z,2.72
2023-03-20T13:13:14.601Z,2.95
2023-03-20T13:15:58.482Z,2.70
2023-03-20T13:18:42.302Z,2.40
2023-03-20T13:21:15.603Z,2.30
2023-03-20T13:23:52.177Z,2.60
2023-03-20T13:26:31.764Z,2.88
2023-03-20T13:29:06.090Z,2.80
2023-03-20T13:31:43.620Z,2.40
2023-03-20T13:34:30.045Z,3.17
2023-03-20T13:37:23.082Z,3.05
2023-03-20T13:40:02.172Z,2.90
2023-03-20T13:42:36.716Z,2.88
2023-03-20T13:45:08.612Z,3.75
2023-03-20T13:47:39.155Z,2.85
2023-03-20T13:50:27.428Z,3.30
2023-03-20T13:53:01.065Z,2.95
2023-03-20T13:55:37.150Z,2.65
2023-03-20T13:58:20.958Z,2.60
2023-03-20T14:00:55.202Z,2.97
2023-03-20T14:03:28.595Z,2.58
2023-03-20T14:05:57.660Z,2.88
2023-03-20T14:08:36.784Z,2.70
2023-03-20T14:11:32.583Z,2.45
2023-03-20T14:14:06.526Z,2.38
2023-03-20T14:16:34.883Z,2.30
2023-03-20T14:19:11.589Z,2.55
2023-03-20T14:21:41.322Z,2.90
2023-03-20T14:24:17.227Z,2.70
2023-03-20T14:26:50.377Z,2.58
2023-03-20T14:29:33.758Z,2.50
2023-03-20T14:32:22.202Z,2.60
2023-03-20T14:34:52.025Z,2.80
2023-03-20T14:37:30.340Z,2.92
2023-03-20T14:40:12.275Z,2.50
2023-03-20T14:42:51.440Z,2.55
2023-03-20T14:45:39.826Z,2.75
2023-03-20T14:48:16.491Z,2.90
2023-03-20T14:50:56.188Z,2.70
2023-03-20T14:53:26.539Z,2.63
2023-03-20T14:56:07.905Z,3.20
2023-03-20T14:58:50.039Z,2.85
2023-03-20T15:01:25.136Z,2.63
2023-03-20T15:03:58.812Z,2.78
2023-03-20T15:06:29.432Z,2.50
2023-03-20T15:09:00.153Z,2.50
2023-03-20T15:11:28.929Z,2.50
2023-03-20T15:14:00.110Z,2.40
2023-03-20T15:16:30.293Z,3.00
2023-03-20T15:19:00.000Z,3.47
2023-03-20T15:21:36.294Z,2.10
2023-03-20T15:24:05.296Z,2.45
2023-03-20T15:26:35.647Z,2.70
2023-03-20T15:29:07.883Z,2.50
2023-03-20T15:31:39.304Z,2.90
2023-03-20T15:34:09.839Z,2.70
2023-03-20T15:36:41.009Z,2.60
2023-03-20T15:39:15.827Z,3.10
2023-03-20T15:41:48.019Z,2.92
2023-03-20T15:44:23.212Z,2.42
2023-03-20T15:47:02.460Z,2.70
2023-03-20T15:49:33.240Z,2.85
2023-03-20T15:52:04.940Z,2.80
2023-03-20T15:54:34.285Z,2.58
2023-03-20T15:57:03.774Z,2.35
2023-03-20T15:59:35.278Z,2.30
2023-03-20T16:02:04.695Z,2.40
2023-03-20T16:04:32.960Z,2.50
2023-03-20T16:07:01.852Z,2.70
2023-03-20T16:09:30.338Z,2.30
2023-03-20T16:12:00.435Z,2.25
2023-03-20T16:14:31.585Z,2.80
2023-03-20T16:19:31.338Z,2.30
2023-03-20T16:22:02.747Z,2.53
2023-03-20T16:24:35.630Z,2.53
2023-03-20T16:27:08.607Z,2.47
2023-03-20T16:29:38.253Z,2.58
2023-03-20T16:32:13.943Z,3.42
2023-03-20T16:34:42.128Z,2.85
2023-03-20T16:37:25.326Z,3.03
2023-03-20T16:40:05.979Z,2.70
2023-03-20T16:42:34.507Z,3.10
2023-03-20T16:45:07.306Z,4.22
2023-03-20T16:47:39.224Z,2.47
2023-03-20T16:50:14.064Z,2.80
2023-03-20T16:52:46.688Z,2.55
2023-03-20T16:55:18.332Z,2.78
2023-03-20T16:57:50.902Z,3.13
2023-03-20T17:00:29.907Z,2.88
2023-03-20T17:03:11.008Z,2.60
2023-03-20T17:06:00.318Z,2.53
2023-03-20T17:08:38.758Z,2.80
2023-03-20T17:11:13.004Z,2.75
2023-03-20T17:13:42.325Z,2.63
2023-03-20T17:16:15.752Z,3.28
2023-03-20T17:18:46.550Z,2.78
2023-03-20T17:21:15.080Z,3.17
2023-03-20T17:23:43.371Z,3.63
2023-03-20T17:26:13.176Z,4.10
2023-03-20T17:28:42.522Z,3.60
2023-03-20T17:31:14.161Z,3.60
2023-03-20T17:33:42.449Z,4.32
2023-03-20T17:36:17.355Z,4.45
2023-03-20T17:38:45.752Z,5.03
2023-03-20T17:41:15.960Z,6.72
2023-03-20T17:43:44.258Z,6.63
2023-03-20T17:46:19.082Z,7.22
2023-03-20T17:48:47.480Z,6.65
2023-03-20T17:51:17.357Z,6.65
2023-03-20T17:53:45.611Z,6.68
2023-03-20T17:56:14.960Z,6.32
2023-03-20T17:58:45.191Z,5.90
2023-03-20T18:01:13.970Z,5.70
2023-03-20T18:03:42.619Z,6.05
2023-03-20T18:06:21.630Z,5.53
2023-03-20T18:08:49.813Z,5.50
2023-03-20T18:11:17.961Z,5.63
2023-03-20T18:13:46.255Z,5.05
2023-03-20T18:16:18.102Z,5.30
2023-03-20T18:18:46.799Z,4.68
2023-03-20T18:21:16.768Z,4.82
2023-03-20T18:23:47.009Z,4.20
2023-03-20T18:26:20.291Z,4.20
2023-03-20T18:28:49.458Z,4.38
2023-03-20T18:31:19.659Z,4.15
2023-03-20T18:33:48.808Z,4.23
2023-03-20T18:36:18.856Z,4.40
2023-03-20T18:38:48.801Z,4.47
2023-03-20T18:41:16.993Z,4.25
2023-03-20T18:43:46.428Z,3.90
2023-03-20T18:46:15.209Z,3.95
2023-03-20T18:48:43.686Z,4.13
2023-03-20T18:51:12.665Z,4.20
2023-03-20T18:53:41.757Z,4.53
2023-03-20T18:56:15.985Z,5.03
2023-03-20T18:58:46.244Z,5.28
2023-03-20T19:01:16.574Z,5.47
2023-03-20T19:03:45.939Z,5.80
2023-03-20T19:06:16.003Z,5.50
2023-03-20T19:08:44.549Z,6.10
2023-03-20T19:11:17.886Z,5.70
2023-03-20T19:13:49.551Z,4.95
2023-03-20T19:16:22.593Z,5.57
2023-03-20T19:18:51.159Z,5.57
2023-03-20T19:21:19.772Z,5.28
2023-03-20T19:23:48.251Z,5.60
2023-03-20T19:26:20.827Z,5.15
2023-03-20T19:28:49.958Z,4.57
2023-03-20T19:31:18.568Z,4.60
2023-03-20T19:33:46.833Z,4.72
2023-03-20T19:36:24.494Z,4.72
2023-03-20T19:38:53.078Z,4.53
2023-03-20T19:41:22.849Z,4.22
2023-03-20T19:43:55.272Z,4.63
2023-03-20T19:46:39.114Z,4.30
2023-03-20T19:49:23.557Z,3.90
2023-03-20T19:51:57.994Z,3.92
2023-03-20T19:54:28.507Z,3.90
2023-03-20T19:56:58.108Z,4.28
2023-03-20T19:59:26.340Z,4.18
2023-03-20T20:01:55.116Z,3.80
2023-03-20T20:04:23.584Z,4.05
2023-03-20T20:06:55.598Z,3.72
2023-03-20T20:09:28.771Z,3.78
2023-03-20T20:11:58.862Z,3.75
2023-03-20T20:14:27.745Z,3.57
2023-03-20T20:16:56.276Z,3.55
2023-03-20T20:19:24.808Z,3.90
2023-03-20T20:24:41.642Z,3.38
2023-03-20T20:27:17.361Z,3.70
2023-03-20T20:29:49.909Z,3.10
2023-03-20T20:32:19.646Z,3.63
2023-03-20T20:40:28.583Z,3.38
2023-03-20T20:43:01.860Z,3.30
2023-03-20T20:45:31.652Z,3.33
2023-03-20T20:48:00.881Z,3.38
2023-03-20T20:50:30.974Z,3.60
2023-03-20T20:53:00.033Z,3.38
2023-03-20T20:55:28.360Z,3.05
2023-03-20T20:57:58.535Z,3.30
2023-03-20T21:00:45.351Z,3.77
2023-03-20T21:03:15.974Z,3.55
2023-03-20T21:05:44.368Z,3.25
2023-03-20T21:08:14.463Z,3.40
2023-03-20T21:10:42.937Z,3.30
2023-03-20T21:13:12.498Z,3.15
2023-03-20T21:15:41.255Z,3.67
2023-03-20T21:18:09.983Z,4.18
2023-03-20T21:20:38.366Z,3.28
2023-03-20T21:23:06.640Z,3.03
2023-03-20T21:25:40.508Z,3.22
2023-03-20T21:28:10.627Z,3.00
2023-03-20T21:30:51.027Z,3.05
2023-03-20T21:33:24.916Z,3.22
2023-03-20T21:35:54.533Z,3.25
2023-03-20T21:39:01.958Z,3.40
2023-03-20T21:41:11.685Z,3.25
2023-03-20T21:43:40.900Z,3.08
2023-03-20T21:47:01.618Z,3.35
2023-03-20T21:49:49.807Z,3.13
2023-03-20T21:52:42.682Z,3.75
2023-03-20T22:01:00.765Z,3.13
2023-03-20T22:03:10.344Z,3.15
2023-03-20T22:06:19.545Z,3.03
2023-03-20T22:23:26.344Z,2.92
2023-03-20T22:40:15.200Z,2.92
2023-03-20T22:42:48.943Z,3.47
2023-03-20T22:45:05.073Z,3.50
2023-03-20T22:47:33.789Z,3.10
2023-03-20T22:50:02.583Z,3.30
2023-03-20T22:52:45.887Z,3.10
2023-03-20T22:55:17.186Z,2.97
2023-03-20T22:57:59.811Z,3.03
2023-03-20T23:00:32.416Z,3.20
2023-03-20T23:03:14.168Z,2.83
2023-03-20T23:05:45.971Z,2.78
2023-03-20T23:08:15.791Z,3.25
2023-03-20T23:10:45.110Z,3.20
2023-03-20T23:13:13.497Z,3.03
2023-03-20T23:15:41.754Z,2.75
2023-03-20T23:18:11.686Z,3.08
2023-03-20T23:20:40.990Z,3.20
2023-03-20T23:23:09.651Z,3.05
2023-03-20T23:25:40.517Z,3.08
2023-03-20T23:30:46.673Z,2.80
2023-03-20T23:33:18.004Z,3.00
2023-03-20T23:35:48.412Z,2.80
2023-03-20T23:38:16.929Z,3.17
2023-03-20T23:40:51.650Z,2.53
2023-03-20T23:43:20.424Z,2.70
2023-03-20T23:45:49.046Z,2.67
2023-03-20T23:48:17.785Z,3.03
2023-03-20T23:50:53.073Z,2.88
2023-03-20T23:53:22.910Z,2.63
2023-03-20T23:55:55.170Z,2.97
2023-03-20T23:58:24.803Z,2.97
